^^
Station Historical Data
Daily Summary for February 8, 2017 Units:  Both    English   Metric
« Previous Day
Next Day »
Daily Weekly Monthly Yearly Custom
  High: Low: Average:
Temperature: 80.6 °F /  27 °C 64.6 °F /  18.1 °C 70.9 °F /  21.6 °C
Dew Point: 65.5 °F /  18.6 °C 55.2 °F /  12.9 °C 60 °F /  15.6 °C
Humidity: 93% 49% 70%
Wind Speed: 11.0mph /  17.7km/h - 1.8mph /  2.9km/h
Wind Gust: 18.0mph /  29km/h - -
Wind- - SE
Pressure: 29.75 in /  1007.3 hPa 29.60 in /  1002.3 hPa -
Precipitation: 0.36 in /  9.14 mm    
Historical Graphs
 
 
Tabular Data for February 8, 2017
Time Temperature Dew Point Pressure Wind Wind Speed Wind Gust Humidity Rainfall Rate (Hourly) solar Conditions
00:00 71.8 °F /  22.1 °C 61.0 °F /  16.1 °C 29.69in /  1005.3hPa NE 0.9mph /  1.4km/h 2.0mph /  3.2km/h 69% 0.00in /  0mm 0.0 W/m2
00:06 71.4 °F /  21.9 °C 60.8 °F /  16 °C 29.69in /  1005.3hPa Calm   1.0mph /  1.6km/h 69% 0.00in /  0mm 0.0 W/m2
00:12 71.4 °F /  21.9 °C 60.8 °F /  16 °C 29.69in /  1005.3hPa East 0.9mph /  1.4km/h 1.0mph /  1.6km/h 69% 0.00in /  0mm 0.0 W/m2
00:19 71.2 °F /  21.8 °C 61.0 °F /  16.1 °C 29.69in /  1005.3hPa Calm     70% 0.00in /  0mm 0.0 W/m2
00:25 71.2 °F /  21.8 °C 61.0 °F /  16.1 °C 29.69in /  1005.3hPa Calm   1.0mph /  1.6km/h 70% 0.00in /  0mm 0.0 W/m2
00:31 71.1 °F /  21.7 °C 60.8 °F /  16 °C 29.69in /  1005.3hPa Calm   2.0mph /  3.2km/h 70% 0.00in /  0mm 0.0 W/m2
00:37 70.9 °F /  21.6 °C 58.5 °F /  14.7 °C 29.69in /  1005.3hPa Calm   1.0mph /  1.6km/h 65% 0.00in /  0mm 0.0 W/m2
00:43 70.7 °F /  21.5 °C 57.9 °F /  14.4 °C 29.70in /  1005.6hPa Calm     64% 0.00in /  0mm 0.0 W/m2
00:49 70.5 °F /  21.4 °C 58.1 °F /  14.5 °C 29.69in /  1005.3hPa Calm     65% 0.00in /  0mm 0.0 W/m2
00:55 70.5 °F /  21.4 °C 58.1 °F /  14.5 °C 29.70in /  1005.6hPa Calm   1.0mph /  1.6km/h 65% 0.00in /  0mm 0.0 W/m2
01:01 70.3 °F /  21.3 °C 57.2 °F /  14 °C 29.69in /  1005.3hPa NW 2.0mph /  3.2km/h 5.0mph /  8km/h 63% 0.00in /  0mm 0.0 W/m2
01:07 70.2 °F /  21.2 °C 56.5 °F /  13.6 °C 29.69in /  1005.3hPa NNW 2.9mph /  4.7km/h 3.0mph /  4.8km/h 62% 0.00in /  0mm 0.0 W/m2
01:14 70.2 °F /  21.2 °C 56.5 °F /  13.6 °C 29.69in /  1005.3hPa North 4.0mph /  6.4km/h 4.0mph /  6.4km/h 62% 0.00in /  0mm 0.0 W/m2
01:20 70.0 °F /  21.1 °C 55.9 °F /  13.3 °C 29.69in /  1005.3hPa NNW 4.0mph /  6.4km/h 4.0mph /  6.4km/h 61% 0.00in /  0mm 0.0 W/m2
01:26 70.0 °F /  21.1 °C 55.9 °F /  13.3 °C 29.69in /  1005.3hPa NE 0.9mph /  1.4km/h 5.0mph /  8km/h 61% 0.00in /  0mm 0.0 W/m2
01:32 69.8 °F /  21 °C 55.8 °F /  13.2 °C 29.69in /  1005.3hPa Calm   2.0mph /  3.2km/h 61% 0.00in /  0mm 0.0 W/m2
01:38 69.8 °F /  21 °C 55.8 °F /  13.2 °C 29.69in /  1005.3hPa NNW 0.9mph /  1.4km/h 4.0mph /  6.4km/h 61% 0.00in /  0mm 0.0 W/m2
01:44 69.6 °F /  20.9 °C 55.6 °F /  13.1 °C 29.69in /  1005.3hPa NNW 0.9mph /  1.4km/h 2.0mph /  3.2km/h 61% 0.00in /  0mm 0.0 W/m2
01:50 69.6 °F /  20.9 °C 55.6 °F /  13.1 °C 29.69in /  1005.3hPa NNW 0.9mph /  1.4km/h 3.0mph /  4.8km/h 61% 0.00in /  0mm 0.0 W/m2
01:56 69.4 °F /  20.8 °C 55.9 °F /  13.3 °C 29.69in /  1005.3hPa Calm     62% 0.00in /  0mm 0.0 W/m2
02:03 69.3 °F /  20.7 °C 56.1 °F /  13.4 °C 29.68in /  1005hPa NNW 2.0mph /  3.2km/h 4.0mph /  6.4km/h 63% 0.00in /  0mm 0.0 W/m2
02:09 69.1 °F /  20.6 °C 55.9 °F /  13.3 °C 29.68in /  1005hPa Calm   1.0mph /  1.6km/h 63% 0.00in /  0mm 0.0 W/m2
02:15 69.1 °F /  20.6 °C 56.5 °F /  13.6 °C 29.68in /  1005hPa Calm   2.0mph /  3.2km/h 64% 0.00in /  0mm 0.0 W/m2
02:21 68.7 °F /  20.4 °C 55.2 °F /  12.9 °C 29.68in /  1005hPa Calm     62% 0.00in /  0mm 0.0 W/m2
02:27 68.5 °F /  20.3 °C 55.4 °F /  13 °C 29.68in /  1005hPa Calm     63% 0.00in /  0mm 0.0 W/m2
02:33 68.5 °F /  20.3 °C 55.4 °F /  13 °C 29.67in /  1004.6hPa Calm     63% 0.00in /  0mm 0.0 W/m2
02:39 68.4 °F /  20.2 °C 55.8 °F /  13.2 °C 29.67in /  1004.6hPa Calm     64% 0.00in /  0mm 0.0 W/m2
02:45 68.4 °F /  20.2 °C 55.8 °F /  13.2 °C 29.67in /  1004.6hPa Calm     64% 0.00in /  0mm 0.0 W/m2
02:52 68.2 °F /  20.1 °C 55.6 °F /  13.1 °C 29.67in /  1004.6hPa Calm     64% 0.00in /  0mm 0.0 W/m2
02:58 68.0 °F /  20 °C 55.4 °F /  13 °C 29.67in /  1004.6hPa Calm     64% 0.00in /  0mm 0.0 W/m2
03:04 67.8 °F /  19.9 °C 55.6 °F /  13.1 °C 29.67in /  1004.6hPa Calm     65% 0.00in /  0mm 0.0 W/m2
03:10 67.6 °F /  19.8 °C 55.4 °F /  13 °C 29.67in /  1004.6hPa Calm     65% 0.00in /  0mm 0.0 W/m2
03:16 67.5 °F /  19.7 °C 55.2 °F /  12.9 °C 29.67in /  1004.6hPa Calm     65% 0.00in /  0mm 0.0 W/m2
03:22 67.5 °F /  19.7 °C 55.8 °F /  13.2 °C 29.67in /  1004.6hPa Calm     66% 0.00in /  0mm 0.0 W/m2
03:28 67.3 °F /  19.6 °C 55.6 °F /  13.1 °C 29.67in /  1004.6hPa Calm     66% 0.00in /  0mm 0.0 W/m2
03:35 67.1 °F /  19.5 °C 55.8 °F /  13.2 °C 29.67in /  1004.6hPa Calm     67% 0.00in /  0mm 0.0 W/m2
03:41 66.9 °F /  19.4 °C 55.9 °F /  13.3 °C 29.66in /  1004.3hPa Calm     68% 0.00in /  0mm 0.0 W/m2
03:47 66.7 °F /  19.3 °C 55.8 °F /  13.2 °C 29.66in /  1004.3hPa Calm   1.0mph /  1.6km/h 68% 0.00in /  0mm 0.0 W/m2
03:53 66.7 °F /  19.3 °C 55.8 °F /  13.2 °C 29.67in /  1004.6hPa Calm     68% 0.00in /  0mm 0.0 W/m2
03:59 66.6 °F /  19.2 °C 56.1 °F /  13.4 °C 29.67in /  1004.6hPa Calm     69% 0.00in /  0mm 0.0 W/m2
04:05 66.6 °F /  19.2 °C 56.1 °F /  13.4 °C 29.67in /  1004.6hPa Calm     69% 0.00in /  0mm 0.0 W/m2
04:12 66.6 °F /  19.2 °C 56.1 °F /  13.4 °C 29.67in /  1004.6hPa Calm     69% 0.00in /  0mm 0.0 W/m2
04:18 66.4 °F /  19.1 °C 55.9 °F /  13.3 °C 29.67in /  1004.6hPa Calm     69% 0.00in /  0mm 0.0 W/m2
04:24 66.2 °F /  19 °C 56.1 °F /  13.4 °C 29.66in /  1004.3hPa Calm   1.0mph /  1.6km/h 70% 0.00in /  0mm 0.0 W/m2
04:30 66.0 °F /  18.9 °C 55.9 °F /  13.3 °C 29.66in /  1004.3hPa Calm     70% 0.00in /  0mm 0.0 W/m2
04:36 65.8 °F /  18.8 °C 55.8 °F /  13.2 °C 29.66in /  1004.3hPa Calm     70% 0.00in /  0mm 0.0 W/m2
04:42 65.8 °F /  18.8 °C 55.8 °F /  13.2 °C 29.66in /  1004.3hPa Calm   1.0mph /  1.6km/h 70% 0.00in /  0mm 0.0 W/m2
04:48 65.7 °F /  18.7 °C 55.6 °F /  13.1 °C 29.66in /  1004.3hPa Calm     70% 0.00in /  0mm 0.0 W/m2
04:55 65.5 °F /  18.6 °C 55.8 °F /  13.2 °C 29.66in /  1004.3hPa Calm     71% 0.00in /  0mm 0.0 W/m2
05:01 65.5 °F /  18.6 °C 55.8 °F /  13.2 °C 29.66in /  1004.3hPa Calm     71% 0.00in /  0mm 0.0 W/m2
05:07 65.5 °F /  18.6 °C 55.8 °F /  13.2 °C 29.66in /  1004.3hPa Calm     71% 0.00in /  0mm 0.0 W/m2
05:13 65.3 °F /  18.5 °C 55.6 °F /  13.1 °C 29.66in /  1004.3hPa Calm     71% 0.00in /  0mm 0.0 W/m2
05:19 65.3 °F /  18.5 °C 55.6 °F /  13.1 °C 29.66in /  1004.3hPa Calm     71% 0.00in /  0mm 0.0 W/m2
05:25 65.1 °F /  18.4 °C 55.4 °F /  13 °C 29.66in /  1004.3hPa Calm     71% 0.00in /  0mm 0.0 W/m2
05:31 65.1 °F /  18.4 °C 55.4 °F /  13 °C 29.66in /  1004.3hPa Calm     71% 0.00in /  0mm 0.0 W/m2
05:38 65.1 °F /  18.4 °C 55.4 °F /  13 °C 29.66in /  1004.3hPa Calm     71% 0.00in /  0mm 0.0 W/m2
05:44 64.9 °F /  18.3 °C 55.4 °F /  13 °C 29.66in /  1004.3hPa Calm     71% 0.00in /  0mm 0.0 W/m2
05:50 64.9 °F /  18.3 °C 55.8 °F /  13.2 °C 29.66in /  1004.3hPa Calm     72% 0.00in /  0mm 0.0 W/m2
05:56 64.8 °F /  18.2 °C 55.6 °F /  13.1 °C 29.66in /  1004.3hPa Calm     72% 0.00in /  0mm 0.0 W/m2
06:03 64.8 °F /  18.2 °C 55.6 °F /  13.1 °C 29.66in /  1004.3hPa Calm     72% 0.00in /  0mm 0.0 W/m2
06:08 64.8 °F /  18.2 °C 55.6 °F /  13.1 °C 29.65in /  1003.9hPa Calm     72% 0.00in /  0mm 0.0 W/m2
06:15 64.6 °F /  18.1 °C 55.4 °F /  13 °C 29.66in /  1004.3hPa Calm     72% 0.00in /  0mm 0.0 W/m2
06:21 64.6 °F /  18.1 °C 55.4 °F /  13 °C 29.66in /  1004.3hPa Calm     72% 0.00in /  0mm 0.0 W/m2
06:27 64.6 °F /  18.1 °C 55.4 °F /  13 °C 29.66in /  1004.3hPa Calm     72% 0.00in /  0mm 0.0 W/m2
06:33 64.6 °F /  18.1 °C 55.4 °F /  13 °C 29.66in /  1004.3hPa Calm     72% 0.00in /  0mm 0.0 W/m2
06:39 64.6 °F /  18.1 °C 55.8 °F /  13.2 °C 29.66in /  1004.3hPa Calm     73% 0.00in /  0mm 0.0 W/m2
06:45 64.6 °F /  18.1 °C 55.8 °F /  13.2 °C 29.66in /  1004.3hPa Calm   2.0mph /  3.2km/h 73% 0.00in /  0mm 7.0 W/m2
06:51 64.6 °F /  18.1 °C 55.8 °F /  13.2 °C 29.66in /  1004.3hPa Calm   2.0mph /  3.2km/h 73% 0.00in /  0mm 12.0 W/m2
06:57 64.6 °F /  18.1 °C 55.8 °F /  13.2 °C 29.66in /  1004.3hPa Calm   1.0mph /  1.6km/h 73% 0.00in /  0mm 21.0 W/m2
07:04 64.6 °F /  18.1 °C 55.8 °F /  13.2 °C 29.66in /  1004.3hPa Calm   2.0mph /  3.2km/h 73% 0.00in /  0mm 32.0 W/m2
07:10 64.8 °F /  18.2 °C 55.9 °F /  13.3 °C 29.66in /  1004.3hPa Calm   2.0mph /  3.2km/h 73% 0.00in /  0mm 40.0 W/m2
07:16 64.8 °F /  18.2 °C 55.9 °F /  13.3 °C 29.66in /  1004.3hPa Calm   2.0mph /  3.2km/h 73% 0.00in /  0mm 46.0 W/m2
07:22 64.9 °F /  18.3 °C 56.1 °F /  13.4 °C 29.66in /  1004.3hPa Calm   2.0mph /  3.2km/h 73% 0.00in /  0mm 54.0 W/m2
07:28 65.3 °F /  18.5 °C 56.1 °F /  13.4 °C 29.66in /  1004.3hPa Calm   2.0mph /  3.2km/h 72% 0.00in /  0mm 63.0 W/m2
07:34 65.7 °F /  18.7 °C 56.8 °F /  13.8 °C 29.67in /  1004.6hPa Calm   1.0mph /  1.6km/h 73% 0.00in /  0mm 72.0 W/m2
07:40 65.8 °F /  18.8 °C 56.5 °F /  13.6 °C 29.66in /  1004.3hPa Calm   3.0mph /  4.8km/h 72% 0.00in /  0mm 81.0 W/m2
07:47 66.2 °F /  19 °C 56.5 °F /  13.6 °C 29.67in /  1004.6hPa Calm     71% 0.00in /  0mm 90.0 W/m2
07:53 66.6 °F /  19.2 °C 57.2 °F /  14 °C 29.66in /  1004.3hPa Calm     72% 0.00in /  0mm 98.0 W/m2
08:00 66.7 °F /  19.3 °C 56.3 °F /  13.5 °C 29.66in /  1004.3hPa Calm     69% 0.00in /  0mm 107.0 W/m2
08:07 67.1 °F /  19.5 °C 56.7 °F /  13.7 °C 29.66in /  1004.3hPa Calm     69% 0.00in /  0mm 118.0 W/m2
08:13 67.5 °F /  19.7 °C 56.5 °F /  13.6 °C 29.66in /  1004.3hPa Calm     68% 0.00in /  0mm 127.0 W/m2
08:19 68.2 °F /  20.1 °C 56.8 °F /  13.8 °C 29.66in /  1004.3hPa Calm     67% 0.00in /  0mm 134.0 W/m2
08:25 68.5 °F /  20.3 °C 56.7 °F /  13.7 °C 29.66in /  1004.3hPa Calm     66% 0.00in /  0mm 248.0 W/m2
08:32 69.3 °F /  20.7 °C 57.0 °F /  13.9 °C 29.66in /  1004.3hPa ESE 0.9mph /  1.4km/h 1.0mph /  1.6km/h 65% 0.00in /  0mm 469.0 W/m2
08:38 70.0 °F /  21.1 °C 57.7 °F /  14.3 °C 29.65in /  1003.9hPa SW 0.9mph /  1.4km/h 1.0mph /  1.6km/h 65% 0.00in /  0mm 476.0 W/m2
08:44 70.5 °F /  21.4 °C 57.7 °F /  14.3 °C 29.65in /  1003.9hPa Calm   2.0mph /  3.2km/h 64% 0.00in /  0mm 445.0 W/m2
08:50 71.4 °F /  21.9 °C 58.1 °F /  14.5 °C 29.66in /  1004.3hPa Calm   2.0mph /  3.2km/h 63% 0.00in /  0mm 338.0 W/m2
08:56 72.1 °F /  22.3 °C 58.5 °F /  14.7 °C 29.66in /  1004.3hPa Calm   2.0mph /  3.2km/h 62% 0.00in /  0mm 172.0 W/m2
09:02 72.3 °F /  22.4 °C 58.1 °F /  14.5 °C 29.66in /  1004.3hPa SSW 2.0mph /  3.2km/h 2.0mph /  3.2km/h 61% 0.00in /  0mm 97.0 W/m2
09:08 72.5 °F /  22.5 °C 58.8 °F /  14.9 °C 29.66in /  1004.3hPa SW 2.9mph /  4.7km/h 3.0mph /  4.8km/h 62% 0.00in /  0mm 121.0 W/m2
09:14 72.7 °F /  22.6 °C 59.4 °F /  15.2 °C 29.66in /  1004.3hPa South 0.9mph /  1.4km/h 3.0mph /  4.8km/h 63% 0.00in /  0mm 127.0 W/m2
09:21 72.9 °F /  22.7 °C 59.5 °F /  15.3 °C 29.66in /  1004.3hPa Calm   6.0mph /  9.7km/h 63% 0.00in /  0mm 116.0 W/m2
09:27 73.0 °F /  22.8 °C 59.2 °F /  15.1 °C 29.66in /  1004.3hPa SW 0.9mph /  1.4km/h 6.0mph /  9.7km/h 62% 0.00in /  0mm 125.0 W/m2
09:33 73.2 °F /  22.9 °C 59.4 °F /  15.2 °C 29.66in /  1004.3hPa SE 2.9mph /  4.7km/h 5.0mph /  8km/h 62% 0.00in /  0mm 192.0 W/m2
09:39 73.6 °F /  23.1 °C 59.4 °F /  15.2 °C 29.66in /  1004.3hPa ESE 2.0mph /  3.2km/h 9.0mph /  14.5km/h 61% 0.00in /  0mm 239.0 W/m2
09:45 74.1 °F /  23.4 °C 58.8 °F /  14.9 °C 29.67in /  1004.6hPa East 6.0mph /  9.7km/h 12.0mph /  19.3km/h 59% 0.00in /  0mm 515.0 W/m2
09:51 74.8 °F /  23.8 °C 58.6 °F /  14.8 °C 29.67in /  1004.6hPa South 6.0mph /  9.7km/h 8.0mph /  12.9km/h 57% 0.00in /  0mm 390.0 W/m2
09:57 75.6 °F /  24.2 °C 58.8 °F /  14.9 °C 29.67in /  1004.6hPa ENE 0.9mph /  1.4km/h 9.0mph /  14.5km/h 56% 0.00in /  0mm 485.0 W/m2
10:03 75.9 °F /  24.4 °C 58.6 °F /  14.8 °C 29.67in /  1004.6hPa ENE 4.0mph /  6.4km/h 13.0mph /  20.9km/h 55% 0.00in /  0mm 541.0 W/m2
10:10 76.3 °F /  24.6 °C 59.4 °F /  15.2 °C 29.67in /  1004.6hPa SE 4.0mph /  6.4km/h 9.0mph /  14.5km/h 56% 0.00in /  0mm 654.0 W/m2
10:16 77.0 °F /  25 °C 59.5 °F /  15.3 °C 29.67in /  1004.6hPa South 2.9mph /  4.7km/h 6.0mph /  9.7km/h 55% 0.00in /  0mm 671.0 W/m2
10:22 77.5 °F /  25.3 °C 59.0 °F /  15 °C 29.67in /  1004.6hPa East 6.0mph /  9.7km/h 6.0mph /  9.7km/h 53% 0.00in /  0mm 751.0 W/m2
10:28 78.1 °F /  25.6 °C 59.5 °F /  15.3 °C 29.67in /  1004.6hPa SSE 6.9mph /  11.1km/h 13.0mph /  20.9km/h 53% 0.00in /  0mm 749.0 W/m2
10:34 78.6 °F /  25.9 °C 59.5 °F /  15.3 °C 29.68in /  1005hPa SE 8.9mph /  14.3km/h 13.0mph /  20.9km/h 52% 0.00in /  0mm 626.0 W/m2
10:40 78.6 °F /  25.9 °C 59.5 °F /  15.3 °C 29.68in /  1005hPa SSE 4.9mph /  7.9km/h 12.0mph /  19.3km/h 52% 0.00in /  0mm 568.0 W/m2
10:46 78.4 °F /  25.8 °C 59.4 °F /  15.2 °C 29.68in /  1005hPa SSE 8.9mph /  14.3km/h 13.0mph /  20.9km/h 52% 0.00in /  0mm 638.0 W/m2
10:52 78.4 °F /  25.8 °C 59.9 °F /  15.5 °C 29.68in /  1005hPa SE 6.9mph /  11.1km/h 11.0mph /  17.7km/h 53% 0.00in /  0mm 740.0 W/m2
10:58 79.0 °F /  26.1 °C 59.9 °F /  15.5 °C 29.68in /  1005hPa NNE 2.0mph /  3.2km/h 7.0mph /  11.3km/h 52% 0.00in /  0mm 1123.0 W/m2
11:05 79.9 °F /  26.6 °C 59.5 °F /  15.3 °C 29.68in /  1005hPa ESE 6.9mph /  11.1km/h 10.0mph /  16.1km/h 50% 0.00in /  0mm 510.0 W/m2
11:11 79.9 °F /  26.6 °C 59.5 °F /  15.3 °C 29.68in /  1005hPa SE 2.9mph /  4.7km/h 10.0mph /  16.1km/h 50% 0.00in /  0mm 338.0 W/m2
11:17 79.9 °F /  26.6 °C 60.1 °F /  15.6 °C 29.67in /  1004.6hPa East 4.0mph /  6.4km/h 6.0mph /  9.7km/h 51% 0.00in /  0mm 1211.0 W/m2
11:23 80.2 °F /  26.8 °C 59.9 °F /  15.5 °C 29.67in /  1004.6hPa East 4.0mph /  6.4km/h 7.0mph /  11.3km/h 50% 0.00in /  0mm 385.0 W/m2
11:29 80.6 °F /  27 °C 60.3 °F /  15.7 °C 29.67in /  1004.6hPa ESE 2.0mph /  3.2km/h 9.0mph /  14.5km/h 50% 0.00in /  0mm 1093.0 W/m2
11:35 80.4 °F /  26.9 °C 59.5 °F /  15.3 °C 29.67in /  1004.6hPa Calm   8.0mph /  12.9km/h 49% 0.00in /  0mm 476.0 W/m2
11:41 80.1 °F /  26.7 °C 59.2 °F /  15.1 °C 29.67in /  1004.6hPa SE 6.9mph /  11.1km/h 9.0mph /  14.5km/h 49% 0.00in /  0mm 316.0 W/m2
11:48 79.3 °F /  26.3 °C 59.0 °F /  15 °C 29.68in /  1005hPa ESE 2.9mph /  4.7km/h 11.0mph /  17.7km/h 50% 0.00in /  0mm 258.0 W/m2
11:54 79.0 °F /  26.1 °C 61.0 °F /  16.1 °C 29.67in /  1004.6hPa SE 4.9mph /  7.9km/h 11.0mph /  17.7km/h 54% 0.00in /  0mm 262.0 W/m2
12:00 78.4 °F /  25.8 °C 61.0 °F /  16.1 °C 29.67in /  1004.6hPa NNE 6.9mph /  11.1km/h 10.0mph /  16.1km/h 55% 0.00in /  0mm 345.0 W/m2
12:06 77.7 °F /  25.4 °C 60.3 °F /  15.7 °C 29.67in /  1004.6hPa ESE 0.9mph /  1.4km/h 8.0mph /  12.9km/h 55% 0.00in /  0mm 176.0 W/m2
12:12 77.4 °F /  25.2 °C 59.9 °F /  15.5 °C 29.67in /  1004.6hPa SE 6.0mph /  9.7km/h 8.0mph /  12.9km/h 55% 0.00in /  0mm 348.0 W/m2
12:18 77.4 °F /  25.2 °C 60.4 °F /  15.8 °C 29.67in /  1004.6hPa ESE 2.9mph /  4.7km/h 10.0mph /  16.1km/h 56% 0.00in /  0mm 267.0 W/m2
12:24 77.4 °F /  25.2 °C 58.8 °F /  14.9 °C 29.67in /  1004.6hPa SE 4.0mph /  6.4km/h 13.0mph /  20.9km/h 53% 0.00in /  0mm 232.0 W/m2
12:30 77.7 °F /  25.4 °C 59.7 °F /  15.4 °C 29.67in /  1004.6hPa NE 6.0mph /  9.7km/h 11.0mph /  17.7km/h 54% 0.00in /  0mm 218.0 W/m2
12:37 77.5 °F /  25.3 °C 60.1 °F /  15.6 °C 29.67in /  1004.6hPa East 4.9mph /  7.9km/h 9.0mph /  14.5km/h 55% 0.00in /  0mm 209.0 W/m2
12:43 77.2 °F /  25.1 °C 59.2 °F /  15.1 °C 29.67in /  1004.6hPa SW 0.9mph /  1.4km/h 12.0mph /  19.3km/h 54% 0.00in /  0mm 216.0 W/m2
12:49 76.8 °F /  24.9 °C 59.9 °F /  15.5 °C 29.67in /  1004.6hPa ESE 11.0mph /  17.7km/h 15.0mph /  24.1km/h 56% 0.00in /  0mm 230.0 W/m2
12:55 76.1 °F /  24.5 °C 60.8 °F /  16 °C 29.67in /  1004.6hPa SE 8.1mph /  13km/h 13.0mph /  20.9km/h 59% 0.00in /  0mm 220.0 W/m2
13:01 75.6 °F /  24.2 °C 60.3 °F /  15.7 °C 29.67in /  1004.6hPa SE 11.0mph /  17.7km/h 11.0mph /  17.7km/h 59% 0.00in /  0mm 283.0 W/m2
13:07 75.2 °F /  24 °C 59.9 °F /  15.5 °C 29.67in /  1004.6hPa SE 4.0mph /  6.4km/h 8.0mph /  12.9km/h 59% 0.00in /  0mm 348.0 W/m2
13:13 75.4 °F /  24.1 °C 59.0 °F /  15 °C 29.66in /  1004.3hPa SSE 6.9mph /  11.1km/h 9.0mph /  14.5km/h 57% 0.00in /  0mm 417.0 W/m2
13:19 75.9 °F /  24.4 °C 58.1 °F /  14.5 °C 29.66in /  1004.3hPa SE 6.9mph /  11.1km/h 9.0mph /  14.5km/h 54% 0.00in /  0mm 422.0 W/m2
13:26 76.6 °F /  24.8 °C 58.3 °F /  14.6 °C 29.66in /  1004.3hPa SE 2.0mph /  3.2km/h 9.0mph /  14.5km/h 53% 0.00in /  0mm 396.0 W/m2
13:32 77.2 °F /  25.1 °C 58.6 °F /  14.8 °C 29.65in /  1003.9hPa SE 6.9mph /  11.1km/h 11.0mph /  17.7km/h 53% 0.00in /  0mm 366.0 W/m2
13:38 77.2 °F /  25.1 °C 59.7 °F /  15.4 °C 29.65in /  1003.9hPa SE 2.0mph /  3.2km/h 8.0mph /  12.9km/h 55% 0.00in /  0mm 362.0 W/m2
13:44 77.4 °F /  25.2 °C 59.9 °F /  15.5 °C 29.65in /  1003.9hPa SE 4.9mph /  7.9km/h 9.0mph /  14.5km/h 55% 0.00in /  0mm 403.0 W/m2
13:50 77.7 °F /  25.4 °C 59.7 °F /  15.4 °C 29.64in /  1003.6hPa SE 2.9mph /  4.7km/h 10.0mph /  16.1km/h 54% 0.00in /  0mm 494.0 W/m2
13:57 78.1 °F /  25.6 °C 59.5 °F /  15.3 °C 29.64in /  1003.6hPa SE 4.0mph /  6.4km/h 9.0mph /  14.5km/h 53% 0.00in /  0mm 573.0 W/m2
14:03 78.4 °F /  25.8 °C 59.9 °F /  15.5 °C 29.64in /  1003.6hPa ESE 4.9mph /  7.9km/h 7.0mph /  11.3km/h 53% 0.00in /  0mm 564.0 W/m2
14:09 79.2 °F /  26.2 °C 59.5 °F /  15.3 °C 29.64in /  1003.6hPa SE 2.9mph /  4.7km/h 7.0mph /  11.3km/h 51% 0.00in /  0mm 561.0 W/m2
14:15 79.5 °F /  26.4 °C 59.7 °F /  15.4 °C 29.64in /  1003.6hPa SE 4.9mph /  7.9km/h 7.0mph /  11.3km/h 51% 0.00in /  0mm 519.0 W/m2
14:21 80.1 °F /  26.7 °C 60.8 °F /  16 °C 29.64in /  1003.6hPa ESE 4.9mph /  7.9km/h 9.0mph /  14.5km/h 52% 0.00in /  0mm 478.0 W/m2
14:27 79.9 °F /  26.6 °C 60.6 °F /  15.9 °C 29.63in /  1003.3hPa SE 4.0mph /  6.4km/h 5.0mph /  8km/h 52% 0.00in /  0mm 338.0 W/m2
14:33 79.5 °F /  26.4 °C 60.8 °F /  16 °C 29.63in /  1003.3hPa SSE 4.0mph /  6.4km/h 14.0mph /  22.5km/h 53% 0.00in /  0mm 362.0 W/m2
14:39 79.2 °F /  26.2 °C 60.6 °F /  15.9 °C 29.63in /  1003.3hPa SE 4.0mph /  6.4km/h 10.0mph /  16.1km/h 53% 0.00in /  0mm 376.0 W/m2
14:45 79.2 °F /  26.2 °C 60.6 °F /  15.9 °C 29.63in /  1003.3hPa ESE 6.9mph /  11.1km/h 13.0mph /  20.9km/h 53% 0.00in /  0mm 388.0 W/m2
14:51 79.2 °F /  26.2 °C 60.6 °F /  15.9 °C 29.63in /  1003.3hPa East 4.0mph /  6.4km/h 10.0mph /  16.1km/h 53% 0.00in /  0mm 392.0 W/m2
14:57 79.3 °F /  26.3 °C 60.3 °F /  15.7 °C 29.64in /  1003.6hPa NE 4.0mph /  6.4km/h 11.0mph /  17.7km/h 52% 0.00in /  0mm 329.0 W/m2
15:03 79.3 °F /  26.3 °C 60.8 °F /  16 °C 29.63in /  1003.3hPa South 6.9mph /  11.1km/h 7.0mph /  11.3km/h 53% 0.00in /  0mm 234.0 W/m2
15:09 79.0 °F /  26.1 °C 61.5 °F /  16.4 °C 29.64in /  1003.6hPa SSE 4.9mph /  7.9km/h 14.0mph /  22.5km/h 55% 0.00in /  0mm 146.0 W/m2
15:15 77.7 °F /  25.4 °C 59.7 °F /  15.4 °C 29.64in /  1003.6hPa East 6.0mph /  9.7km/h 14.0mph /  22.5km/h 54% 0.00in /  0mm 77.0 W/m2
15:21 75.4 °F /  24.1 °C 64.0 °F /  17.8 °C 29.65in /  1003.9hPa SE 0.9mph /  1.4km/h 9.0mph /  14.5km/h 68% 0.01in /  0.25mm 79.0 W/m2
15:27 73.2 °F /  22.9 °C 64.4 °F /  18 °C 29.65in /  1003.9hPa SE 4.0mph /  6.4km/h 7.0mph /  11.3km/h 74% 0.03in /  0.76mm 91.0 W/m2
15:33 71.2 °F /  21.8 °C 63.3 °F /  17.4 °C 29.64in /  1003.6hPa SSE 4.9mph /  7.9km/h 5.0mph /  8km/h 76% 0.05in /  1.27mm 107.0 W/m2
15:39 70.3 °F /  21.3 °C 63.1 °F /  17.3 °C 29.64in /  1003.6hPa Calm   2.0mph /  3.2km/h 78% 0.06in /  1.52mm 127.0 W/m2
15:45 70.2 °F /  21.2 °C 64.0 °F /  17.8 °C 29.63in /  1003.3hPa Calm     81% 0.06in /  1.52mm 137.0 W/m2
15:51 70.2 °F /  21.2 °C 64.8 °F /  18.2 °C 29.63in /  1003.3hPa Calm     83% 0.06in /  1.52mm 146.0 W/m2
15:57 70.3 °F /  21.3 °C 65.3 °F /  18.5 °C 29.63in /  1003.3hPa NE 2.0mph /  3.2km/h 2.0mph /  3.2km/h 84% 0.06in /  1.52mm 153.0 W/m2
16:03 70.5 °F /  21.4 °C 64.4 °F /  18 °C 29.63in /  1003.3hPa Calm     81% 0.06in /  1.52mm 153.0 W/m2
16:09 70.9 °F /  21.6 °C 65.1 °F /  18.4 °C 29.62in /  1002.9hPa Calm     82% 0.06in /  1.52mm 160.0 W/m2
16:15 71.2 °F /  21.8 °C 65.5 °F /  18.6 °C 29.62in /  1002.9hPa North 0.9mph /  1.4km/h 1.0mph /  1.6km/h 82% 0.06in /  1.52mm 169.0 W/m2
16:21 71.6 °F /  22 °C 64.8 °F /  18.2 °C 29.62in /  1002.9hPa Calm   1.0mph /  1.6km/h 79% 0.04in /  1.02mm 163.0 W/m2
16:27 72.0 °F /  22.2 °C 65.5 °F /  18.6 °C 29.62in /  1002.9hPa Calm   2.0mph /  3.2km/h 80% 0.02in /  0.51mm 190.0 W/m2
16:33 72.3 °F /  22.4 °C 65.5 °F /  18.6 °C 29.61in /  1002.6hPa Calm     79% 0.01in /  0.25mm 206.0 W/m2
16:39 72.7 °F /  22.6 °C 64.2 °F /  17.9 °C 29.61in /  1002.6hPa East 0.9mph /  1.4km/h 5.0mph /  8km/h 75% 0.00in /  0mm 232.0 W/m2
16:45 73.0 °F /  22.8 °C 63.9 °F /  17.7 °C 29.61in /  1002.6hPa ESE 0.9mph /  1.4km/h 6.0mph /  9.7km/h 73% 0.00in /  0mm 257.0 W/m2
16:51 73.6 °F /  23.1 °C 63.1 °F /  17.3 °C 29.61in /  1002.6hPa SSE 2.9mph /  4.7km/h 7.0mph /  11.3km/h 70% 0.00in /  0mm 243.0 W/m2
16:57 74.1 °F /  23.4 °C 64.0 °F /  17.8 °C 29.61in /  1002.6hPa SE 2.9mph /  4.7km/h 5.0mph /  8km/h 71% 0.00in /  0mm 251.0 W/m2
17:03 74.5 °F /  23.6 °C 63.7 °F /  17.6 °C 29.61in /  1002.6hPa East 2.0mph /  3.2km/h 5.0mph /  8km/h 69% 0.00in /  0mm 279.0 W/m2
17:09 74.8 °F /  23.8 °C 62.8 °F /  17.1 °C 29.61in /  1002.6hPa ESE 4.0mph /  6.4km/h 8.0mph /  12.9km/h 66% 0.00in /  0mm 302.0 W/m2
17:15 75.4 °F /  24.1 °C 62.8 °F /  17.1 °C 29.61in /  1002.6hPa SE 4.0mph /  6.4km/h 7.0mph /  11.3km/h 65% 0.00in /  0mm 299.0 W/m2
17:21 75.7 °F /  24.3 °C 63.5 °F /  17.5 °C 29.61in /  1002.6hPa Calm   7.0mph /  11.3km/h 66% 0.00in /  0mm 367.0 W/m2
17:27 76.3 °F /  24.6 °C 63.1 °F /  17.3 °C 29.61in /  1002.6hPa NE 4.0mph /  6.4km/h 5.0mph /  8km/h 64% 0.00in /  0mm 315.0 W/m2
17:33 77.2 °F /  25.1 °C 63.7 °F /  17.6 °C 29.60in /  1002.3hPa Calm   4.0mph /  6.4km/h 63% 0.00in /  0mm 696.0 W/m2
17:39 78.3 °F /  25.7 °C 63.3 °F /  17.4 °C 29.60in /  1002.3hPa ENE 2.0mph /  3.2km/h 5.0mph /  8km/h 60% 0.00in /  0mm 503.0 W/m2
17:45 79.3 °F /  26.3 °C 62.8 °F /  17.1 °C 29.61in /  1002.6hPa East 6.0mph /  9.7km/h 7.0mph /  11.3km/h 57% 0.00in /  0mm 626.0 W/m2
17:52 80.1 °F /  26.7 °C 63.5 °F /  17.5 °C 29.61in /  1002.6hPa NNE 4.0mph /  6.4km/h 7.0mph /  11.3km/h 57% 0.00in /  0mm 624.0 W/m2
17:59 80.4 °F /  26.9 °C 62.2 °F /  16.8 °C 29.62in /  1002.9hPa ENE 2.0mph /  3.2km/h 8.0mph /  12.9km/h 54% 0.00in /  0mm 301.0 W/m2
18:05 79.5 °F /  26.4 °C 64.4 °F /  18 °C 29.62in /  1002.9hPa SSW 4.0mph /  6.4km/h 13.0mph /  20.9km/h 60% 0.00in /  0mm 199.0 W/m2
18:11 78.1 °F /  25.6 °C 63.5 °F /  17.5 °C 29.62in /  1002.9hPa NNE 8.1mph /  13km/h 10.0mph /  16.1km/h 61% 0.00in /  0mm 181.0 W/m2
18:17 76.6 °F /  24.8 °C 63.1 °F /  17.3 °C 29.63in /  1003.3hPa NE 6.0mph /  9.7km/h 8.0mph /  12.9km/h 63% 0.00in /  0mm 107.0 W/m2
18:23 75.4 °F /  24.1 °C 61.9 °F /  16.6 °C 29.64in /  1003.6hPa East 6.0mph /  9.7km/h 12.0mph /  19.3km/h 63% 0.00in /  0mm 62.0 W/m2
18:29 73.9 °F /  23.3 °C 62.2 °F /  16.8 °C 29.66in /  1004.3hPa SE 11.0mph /  17.7km/h 14.0mph /  22.5km/h 67% 0.00in /  0mm 16.0 W/m2
18:35 71.4 °F /  21.9 °C 63.5 °F /  17.5 °C 29.66in /  1004.3hPa East 2.0mph /  3.2km/h 9.0mph /  14.5km/h 76% 0.20in /  5.08mm 5.0 W/m2
18:41 69.3 °F /  20.7 °C 63.5 °F /  17.5 °C 29.66in /  1004.3hPa Calm   18.0mph /  29km/h 82% 0.24in /  6.1mm 5.0 W/m2
18:47 68.2 °F /  20.1 °C 63.1 °F /  17.3 °C 29.66in /  1004.3hPa Calm   2.0mph /  3.2km/h 84% 0.28in /  7.11mm 0.0 W/m2
18:53 67.5 °F /  19.7 °C 63.5 °F /  17.5 °C 29.65in /  1003.9hPa ENE 0.9mph /  1.4km/h 9.0mph /  14.5km/h 87% 0.28in /  7.11mm 0.0 W/m2
18:59 66.9 °F /  19.4 °C 63.3 °F /  17.4 °C 29.65in /  1003.9hPa Calm   3.0mph /  4.8km/h 88% 0.29in /  7.37mm 0.0 W/m2
19:05 66.6 °F /  19.2 °C 63.0 °F /  17.2 °C 29.65in /  1003.9hPa NE 0.9mph /  1.4km/h 7.0mph /  11.3km/h 88% 0.29in /  7.37mm 0.0 W/m2
19:11 66.4 °F /  19.1 °C 63.0 °F /  17.2 °C 29.65in /  1003.9hPa ENE 4.0mph /  6.4km/h 4.0mph /  6.4km/h 89% 0.29in /  7.37mm 0.0 W/m2
19:17 66.0 °F /  18.9 °C 62.6 °F /  17 °C 29.66in /  1004.3hPa Calm   2.0mph /  3.2km/h 89% 0.29in /  7.37mm 0.0 W/m2
19:23 66.0 °F /  18.9 °C 63.0 °F /  17.2 °C 29.67in /  1004.6hPa Calm   2.0mph /  3.2km/h 90% 0.29in /  7.37mm 0.0 W/m2
19:29 66.0 °F /  18.9 °C 63.0 °F /  17.2 °C 29.68in /  1005hPa NE 0.9mph /  1.4km/h 3.0mph /  4.8km/h 90% 0.29in /  7.37mm 0.0 W/m2
19:35 66.0 °F /  18.9 °C 63.0 °F /  17.2 °C 29.69in /  1005.3hPa NE 4.0mph /  6.4km/h 4.0mph /  6.4km/h 90% 0.08in /  2.03mm 0.0 W/m2
19:41 66.0 °F /  18.9 °C 63.3 °F /  17.4 °C 29.69in /  1005.3hPa East 0.9mph /  1.4km/h 3.0mph /  4.8km/h 91% 0.04in /  1.02mm 0.0 W/m2
19:47 66.2 °F /  19 °C 63.5 °F /  17.5 °C 29.70in /  1005.6hPa Calm   1.0mph /  1.6km/h 91% 0.01in /  0.25mm 0.0 W/m2
19:53 66.2 °F /  19 °C 63.5 °F /  17.5 °C 29.70in /  1005.6hPa NE 0.9mph /  1.4km/h 2.0mph /  3.2km/h 91% 0.01in /  0.25mm 0.0 W/m2
19:59 66.2 °F /  19 °C 63.5 °F /  17.5 °C 29.70in /  1005.6hPa NNE 0.9mph /  1.4km/h 1.0mph /  1.6km/h 91% 0.00in /  0mm 0.0 W/m2
20:05 66.4 °F /  19.1 °C 63.7 °F /  17.6 °C 29.70in /  1005.6hPa Calm   1.0mph /  1.6km/h 91% 0.00in /  0mm 0.0 W/m2
20:11 66.4 °F /  19.1 °C 64.0 °F /  17.8 °C 29.70in /  1005.6hPa Calm   1.0mph /  1.6km/h 92% 0.00in /  0mm 0.0 W/m2
20:17 66.4 °F /  19.1 °C 63.7 °F /  17.6 °C 29.70in /  1005.6hPa NE 2.0mph /  3.2km/h 3.0mph /  4.8km/h 91% 0.00in /  0mm 0.0 W/m2
20:23 66.4 °F /  19.1 °C 63.7 °F /  17.6 °C 29.71in /  1006hPa Calm   4.0mph /  6.4km/h 91% 0.00in /  0mm 0.0 W/m2
20:29 66.4 °F /  19.1 °C 63.7 °F /  17.6 °C 29.71in /  1006hPa ENE 0.9mph /  1.4km/h 5.0mph /  8km/h 91% 0.00in /  0mm 0.0 W/m2
20:35 66.4 °F /  19.1 °C 63.7 °F /  17.6 °C 29.71in /  1006hPa ENE 0.9mph /  1.4km/h 4.0mph /  6.4km/h 91% 0.00in /  0mm 0.0 W/m2
20:41 66.6 °F /  19.2 °C 63.9 °F /  17.7 °C 29.72in /  1006.3hPa NE 2.9mph /  4.7km/h 5.0mph /  8km/h 91% 0.00in /  0mm 0.0 W/m2
20:48 66.6 °F /  19.2 °C 64.2 °F /  17.9 °C 29.72in /  1006.3hPa Calm   2.0mph /  3.2km/h 92% 0.00in /  0mm 0.0 W/m2
20:53 66.6 °F /  19.2 °C 63.9 °F /  17.7 °C 29.72in /  1006.3hPa SE 0.9mph /  1.4km/h 3.0mph /  4.8km/h 91% 0.02in /  0.51mm 0.0 W/m2
20:59 66.6 °F /  19.2 °C 64.2 °F /  17.9 °C 29.72in /  1006.3hPa Calm   2.0mph /  3.2km/h 92% 0.02in /  0.51mm 0.0 W/m2
21:07 66.6 °F /  19.2 °C 64.2 °F /  17.9 °C 29.72in /  1006.3hPa SE 0.9mph /  1.4km/h 3.0mph /  4.8km/h 92% 0.02in /  0.51mm 0.0 W/m2
21:14 66.7 °F /  19.3 °C 64.4 °F /  18 °C 29.72in /  1006.3hPa ESE 2.0mph /  3.2km/h 3.0mph /  4.8km/h 92% 0.02in /  0.51mm 0.0 W/m2
21:19 66.7 °F /  19.3 °C 64.4 °F /  18 °C 29.72in /  1006.3hPa Calm   1.0mph /  1.6km/h 92% 0.02in /  0.51mm 0.0 W/m2
21:25 66.7 °F /  19.3 °C 64.4 °F /  18 °C 29.72in /  1006.3hPa ENE 2.0mph /  3.2km/h 2.0mph /  3.2km/h 92% 0.02in /  0.51mm 0.0 W/m2
21:31 66.7 °F /  19.3 °C 64.4 °F /  18 °C 29.72in /  1006.3hPa Calm     92% 0.02in /  0.51mm 0.0 W/m2
21:37 66.7 °F /  19.3 °C 64.4 °F /  18 °C 29.72in /  1006.3hPa Calm     92% 0.02in /  0.51mm 0.0 W/m2
21:43 66.7 °F /  19.3 °C 64.4 °F /  18 °C 29.72in /  1006.3hPa Calm     92% 0.02in /  0.51mm 0.0 W/m2
21:49 66.7 °F /  19.3 °C 64.4 °F /  18 °C 29.72in /  1006.3hPa Calm     92% 0.00in /  0mm 0.0 W/m2
21:55 66.9 °F /  19.4 °C 64.8 °F /  18.2 °C 29.72in /  1006.3hPa Calm     93% 0.00in /  0mm 0.0 W/m2
22:01 66.9 °F /  19.4 °C 64.8 °F /  18.2 °C 29.73in /  1006.7hPa Calm     93% 0.00in /  0mm 0.0 W/m2
22:07 66.9 °F /  19.4 °C 64.8 °F /  18.2 °C 29.73in /  1006.7hPa Calm   1.0mph /  1.6km/h 93% 0.00in /  0mm 0.0 W/m2
22:13 67.1 °F /  19.5 °C 64.9 °F /  18.3 °C 29.74in /  1007hPa Calm   1.0mph /  1.6km/h 93% 0.00in /  0mm 0.0 W/m2
22:19 67.1 °F /  19.5 °C 64.9 °F /  18.3 °C 29.74in /  1007hPa Calm     93% 0.00in /  0mm 0.0 W/m2
22:25 67.1 °F /  19.5 °C 64.9 °F /  18.3 °C 29.74in /  1007hPa Calm     93% 0.00in /  0mm 0.0 W/m2
22:31 67.1 °F /  19.5 °C 64.9 °F /  18.3 °C 29.74in /  1007hPa Calm     93% 0.00in /  0mm 0.0 W/m2
22:37 67.1 °F /  19.5 °C 64.9 °F /  18.3 °C 29.75in /  1007.3hPa Calm     93% 0.00in /  0mm 0.0 W/m2
22:43 66.9 °F /  19.4 °C 64.8 °F /  18.2 °C 29.75in /  1007.3hPa Calm   3.0mph /  4.8km/h 93% 0.00in /  0mm 0.0 W/m2
22:49 66.9 °F /  19.4 °C 64.6 °F /  18.1 °C 29.75in /  1007.3hPa East 4.0mph /  6.4km/h 4.0mph /  6.4km/h 92% 0.00in /  0mm 0.0 W/m2
22:55 66.7 °F /  19.3 °C 64.4 °F /  18 °C 29.75in /  1007.3hPa East 0.9mph /  1.4km/h 2.0mph /  3.2km/h 92% 0.00in /  0mm 0.0 W/m2
23:01 66.6 °F /  19.2 °C 64.2 °F /  17.9 °C 29.75in /  1007.3hPa Calm   1.0mph /  1.6km/h 92% 0.00in /  0mm 0.0 W/m2
23:08 66.4 °F /  19.1 °C 63.7 °F /  17.6 °C 29.75in /  1007.3hPa Calm   2.0mph /  3.2km/h 91% 0.00in /  0mm 0.0 W/m2
23:14 66.4 °F /  19.1 °C 63.7 °F /  17.6 °C 29.75in /  1007.3hPa ENE 0.9mph /  1.4km/h 2.0mph /  3.2km/h 91% 0.00in /  0mm 0.0 W/m2
23:20 66.2 °F /  19 °C 63.5 °F /  17.5 °C 29.75in /  1007.3hPa Calm   1.0mph /  1.6km/h 91% 0.00in /  0mm 0.0 W/m2
23:26 66.0 °F /  18.9 °C 63.7 °F /  17.6 °C 29.75in /  1007.3hPa Calm   1.0mph /  1.6km/h 92% 0.00in /  0mm 0.0 W/m2
23:32 66.0 °F /  18.9 °C 63.7 °F /  17.6 °C 29.75in /  1007.3hPa Calm     92% 0.00in /  0mm 0.0 W/m2
23:38 66.0 °F /  18.9 °C 63.7 °F /  17.6 °C 29.75in /  1007.3hPa Calm     92% 0.00in /  0mm 0.0 W/m2
23:44 66.0 °F /  18.9 °C 63.7 °F /  17.6 °C 29.74in /  1007hPa Calm     92% 0.00in /  0mm 0.0 W/m2
23:51 66.0 °F /  18.9 °C 63.7 °F /  17.6 °C 29.74in /  1007hPa Calm   1.0mph /  1.6km/h 92% 0.00in /  0mm 0.0 W/m2
23:57 65.8 °F /  18.8 °C 63.5 °F /  17.5 °C 29.74in /  1007hPa Calm     92% 0.00in /  0mm 0.0 W/m2
Olympia, Windhoek, Namibia
Compliments of Weather Underground - 3 mb